Time;durP1;ratioP1;P1;durP2;ratioP2;P2;SDS_P1;SDS_P2;PMS_P1;PMS_P2;Temp;Humidity;BMP_temperature;BMP_pressure;BME280_temperature;BME280_humidity;BME280_pressure;Samples;Min_cycle;Max_cycle;Signal;HPM_P1;HPM_P2
2023/06/07 00:01:27;;;;;;;7.90;3.83;;;;;;;25.50;46.71;99659.47;4482862;32;33590;-61
2023/06/07 00:03:56;;;;;;;7.00;4.03;;;;;;;25.49;46.74;99663.28;4482959;32;33417;-61
2023/06/07 00:06:24;;;;;;;6.90;4.07;;;;;;;25.47;46.65;99655.34;4482733;32;34623;-62
2023/06/07 00:08:52;;;;;;;6.37;3.97;;;;;;;25.46;46.61;99656.41;4484646;32;34742;-61
2023/06/07 00:11:21;;;;;;;7.22;4.00;;;;;;;25.45;46.65;99658.28;4485072;32;34555;-62
2023/06/07 00:13:50;;;;;;;7.80;4.10;;;;;;;25.45;46.64;99657.47;4483908;32;33122;-61
2023/06/07 00:16:18;;;;;;;6.50;4.05;;;;;;;25.47;46.70;99651.78;4485203;32;34645;-62
2023/06/07 00:18:48;;;;;;;;;;;;;;;25.45;46.75;99652.00;4485458;32;34683;-61
2023/06/07 00:21:16;;;;;;;8.23;3.75;;;;;;;25.54;46.49;99653.28;4485034;32;34000;-61
2023/06/07 00:23:43;;;;;;;5.30;3.45;;;;;;;25.47;46.58;99658.06;4485016;32;34258;-62
2023/06/07 00:26:11;;;;;;;5.87;3.70;;;;;;;25.42;46.57;99656.06;4485201;32;34131;-61
2023/06/07 00:28:39;;;;;;;7.25;3.78;;;;;;;25.41;46.55;99656.28;4484931;32;34731;-61
2023/06/07 00:31:07;;;;;;;5.87;3.40;;;;;;;25.41;46.50;99659.03;4485029;32;33806;-62
2023/06/07 00:33:34;;;;;;;8.80;3.87;;;;;;;25.40;46.47;99666.37;4483896;32;34072;-61
2023/06/07 00:36:02;;;;;;;8.15;3.62;;;;;;;25.38;46.45;99657.63;4484775;32;34725;-61
2023/06/07 00:38:30;;;;;;;4.95;3.40;;;;;;;25.39;46.43;99658.44;4485080;32;33885;-61
2023/06/07 00:40:57;;;;;;;6.50;3.05;;;;;;;25.38;46.43;99659.53;4485078;32;33917;-61
2023/06/07 00:43:26;;;;;;;4.87;3.05;;;;;;;25.37;46.40;99650.50;4484771;32;33444;-62
2023/06/07 00:45:53;;;;;;;5.28;3.12;;;;;;;25.37;46.38;99655.16;4469288;32;33551;-61
2023/06/07 00:48:21;;;;;;;7.20;3.08;;;;;;;25.36;46.34;99657.03;4469154;32;33990;-61
2023/06/07 00:50:49;;;;;;;7.40;3.70;;;;;;;25.36;46.32;99657.03;4469050;32;33613;-61
2023/06/07 00:53:17;;;;;;;7.75;3.50;;;;;;;25.36;46.34;99654.28;4468084;32;33152;-62
2023/06/07 00:55:45;;;;;;;7.18;4.00;;;;;;;25.36;46.34;99656.19;4468018;32;34878;-61
2023/06/07 00:58:15;;;;;;;7.00;3.75;;;;;;;25.35;46.33;99654.53;4467868;32;34064;-61
2023/06/07 01:00:43;;;;;;;4.35;2.90;;;;;;;25.35;46.37;99666.28;4468993;32;34150;-61
2023/06/07 01:03:11;;;;;;;5.87;3.62;;;;;;;25.34;46.43;99650.97;4455255;32;33326;-62
2023/06/07 01:05:39;;;;;;;9.77;3.53;;;;;;;25.34;46.46;99650.97;4467859;32;33750;-61
2023/06/07 01:08:06;;;;;;;7.03;3.62;;;;;;;25.34;46.51;99655.63;4469129;32;33805;-62
2023/06/07 01:10:36;;;;;;;;;;;;;;;25.33;46.53;99651.25;4469348;32;33967;-62
2023/06/07 01:13:04;;;;;;;6.20;3.33;;;;;;;25.43;46.30;99648.69;4467968;32;34029;-61
2023/06/07 01:15:31;;;;;;;7.80;3.62;;;;;;;25.34;46.39;99645.53;4469122;32;34184;-61
2023/06/07 01:18:01;;;;;;;4.70;3.10;;;;;;;25.32;46.38;99641.34;4468630;32;33730;-61
2023/06/07 01:20:29;;;;;;;6.22;3.25;;;;;;;25.30;46.37;99640.78;4468877;32;34648;-61
2023/06/07 01:22:57;;;;;;;5.12;2.58;;;;;;;25.30;46.40;99632.59;4467968;32;33581;-61
2023/06/07 01:25:26;;;;;;;6.70;3.17;;;;;;;25.28;46.49;99638.31;4468834;32;33597;-61
2023/06/07 01:27:55;;;;;;;9.13;3.25;;;;;;;25.29;46.58;99636.41;4467880;32;35000;-61
2023/06/07 01:30:23;;;;;;;4.43;2.97;;;;;;;25.30;46.55;99632.59;4454990;32;34571;-62
2023/06/07 01:32:51;;;;;;;7.62;3.10;;;;;;;25.29;46.50;99630.94;4467699;32;34411;-61
2023/06/07 01:35:19;;;;;;;4.68;3.10;;;;;;;25.28;46.52;99624.66;4467795;32;33782;-61
2023/06/07 01:37:46;;;;;;;5.60;3.10;;;;;;;25.28;46.53;99623.84;4454931;32;33874;-61
2023/06/07 01:40:14;;;;;;;5.82;3.00;;;;;;;25.27;46.49;99622.97;4454911;32;33936;-61
2023/06/07 01:42:42;;;;;;;5.05;3.12;;;;;;;25.26;46.50;99625.97;4467766;32;34149;-61
2023/06/07 01:45:10;;;;;;;5.07;2.85;;;;;;;25.26;46.47;99626.78;4465754;32;33785;-61
2023/06/07 01:47:37;;;;;;;5.00;3.12;;;;;;;25.26;46.38;99624.06;4484392;32;34059;-62
2023/06/07 01:50:06;;;;;;;6.50;3.12;;;;;;;25.25;46.34;99630.59;4483232;32;33968;-61
2023/06/07 01:52:34;;;;;;;8.13;3.35;;;;;;;25.24;46.37;99628.94;4484644;32;33456;-61
2023/06/07 01:55:02;;;;;;;6.80;3.17;;;;;;;25.24;46.35;99615.28;4484341;32;33110;-62
2023/06/07 01:57:39;;;;;;;7.82;3.47;;;;;;;25.24;46.33;99625.38;4483275;32;33778;-62
2023/06/07 02:00:22;;;;;;;6.37;3.25;;;;;;;25.24;46.32;99617.19;4470863;32;33509;-62
2023/06/07 02:02:59;;;;;;;5.30;3.10;;;;;;;25.25;46.30;99614.22;4483289;32;34075;-61
2023/06/07 02:05:31;;;;;;;9.32;3.20;;;;;;;25.21;46.37;99615.75;4482793;32;34781;-61
2023/06/07 02:08:02;;;;;;;6.40;2.87;;;;;;;25.19;46.39;99616.00;4483146;32;34773;-62
2023/06/07 02:10:32;;;;;;;4.95;2.97;;;;;;;25.22;46.36;99624.78;4483370;32;33429;-61
2023/06/07 02:13:00;;;;;;;6.20;3.17;;;;;;;25.20;46.35;99622.31;4470210;32;33489;-61
2023/06/07 02:15:28;;;;;;;10.20;3.28;;;;;;;25.20;46.41;99627.75;4483078;32;33829;-61
2023/06/07 02:17:57;;;;;;;5.45;3.10;;;;;;;25.19;46.41;99620.66;4483100;32;34994;-61
2023/06/07 02:20:28;;;;;;;7.28;3.92;;;;;;;25.17;46.43;99623.59;4484231;32;34414;-61
2023/06/07 02:22:56;;;;;;;5.87;3.00;;;;;;;25.19;46.46;99629.66;4484307;32;34134;-62
2023/06/07 02:25:25;;;;;;;6.85;3.22;;;;;;;25.19;46.49;99621.47;4482927;32;33907;-62
2023/06/07 02:27:53;;;;;;;5.47;2.97;;;;;;;25.19;46.56;99620.66;4484236;32;33946;-61
2023/06/07 02:30:21;;;;;;;5.15;2.70;;;;;;;25.19;46.58;99613.28;4482936;32;34781;-61
2023/06/07 02:32:54;;;;;;;4.75;3.17;;;;;;;25.19;46.61;99615.19;4484371;32;33237;-62
2023/06/07 02:35:22;;;;;;;5.03;2.90;;;;;;;25.18;46.64;99617.09;4484110;32;33541;-61
2023/06/07 02:37:50;;;;;;;7.62;3.10;;;;;;;25.18;46.65;99618.97;4484089;32;34844;-61
2023/06/07 02:40:18;;;;;;;6.18;3.40;;;;;;;25.18;46.66;99622.56;4483758;32;34788;-61
2023/06/07 02:42:46;;;;;;;4.95;3.15;;;;;;;25.18;46.75;99617.09;4484173;32;33438;-62
2023/06/07 02:45:14;;;;;;;8.25;3.47;;;;;;;25.17;46.83;99620.03;4483033;32;33752;-62
2023/06/07 02:47:42;;;;;;;4.60;2.80;;;;;;;25.16;46.73;99616.50;4482451;32;33881;-61
2023/06/07 02:50:11;;;;;;;5.23;2.90;;;;;;;25.16;46.73;99612.94;4484284;32;33774;-62
2023/06/07 02:52:39;;;;;;;7.20;2.75;;;;;;;25.16;46.66;99619.22;4483964;32;33705;-62
2023/06/07 02:55:07;;;;;;;5.35;2.90;;;;;;;25.15;46.65;99614.84;4483851;32;33463;-61
2023/06/07 02:57:35;;;;;;;7.35;2.40;;;;;;;25.14;46.64;99621.38;4484211;32;33690;-62
2023/06/07 03:00:10;;;;;;;6.05;3.42;;;;;;;25.14;46.64;99618.66;4484013;32;33550;-62
2023/06/07 03:02:40;;;;;;;4.07;2.70;;;;;;;25.14;46.67;99623.28;4482907;32;32025;-62
2023/06/07 03:05:08;;;;;;;4.82;3.25;;;;;;;25.13;46.72;99622.47;4483637;32;34613;-62
2023/06/07 03:07:35;;;;;;;9.60;3.03;;;;;;;25.13;46.73;99622.47;4483659;32;34005;-62
2023/06/07 03:10:04;;;;;;;5.70;3.03;;;;;;;25.13;46.75;99621.59;4483721;32;33773;-61
2023/06/07 03:12:32;;;;;;;7.22;3.33;;;;;;;25.12;46.74;99615.31;4483619;32;33224;-61
2023/06/07 03:15:00;;;;;;;5.80;3.22;;;;;;;25.12;46.68;99626.22;4483719;32;33912;-61
2023/06/07 03:17:30;;;;;;;8.30;3.28;;;;;;;25.11;46.71;99624.59;4483776;32;33922;-61
2023/06/07 03:19:57;;;;;;;8.32;3.40;;;;;;;25.11;46.83;99623.75;4483848;32;33819;-61
2023/06/07 03:22:26;;;;;;;5.10;2.70;;;;;;;25.12;46.83;99614.47;4483619;32;33296;-62
2023/06/07 03:24:57;;;;;;;5.65;3.00;;;;;;;25.10;46.79;99628.37;4483798;32;33780;-61
2023/06/07 03:27:27;;;;;;;6.43;3.15;;;;;;;25.09;46.83;99618.53;4483611;32;33936;-61
2023/06/07 03:29:55;;;;;;;5.43;3.20;;;;;;;25.10;46.88;99628.37;4483560;32;33594;-61
2023/06/07 03:32:23;;;;;;;9.77;3.22;;;;;;;25.09;46.84;99620.44;4483686;32;34468;-62
2023/06/07 03:34:51;;;;;;;8.27;3.70;;;;;;;25.08;46.80;99619.59;4483530;32;33914;-62
2023/06/07 03:37:20;;;;;;;6.70;3.35;;;;;;;25.09;46.81;99623.19;4483624;32;33981;-61
2023/06/07 03:39:48;;;;;;;7.53;3.60;;;;;;;25.09;46.83;99631.38;4483459;32;34553;-61
2023/06/07 03:42:16;;;;;;;9.48;3.12;;;;;;;25.10;46.92;99633.03;4484134;32;33441;-61
2023/06/07 03:44:44;;;;;;;7.03;3.62;;;;;;;25.09;46.94;99632.19;4485386;32;34428;-61
2023/06/07 03:47:12;;;;;;;5.32;2.80;;;;;;;25.10;46.88;99635.75;4485538;32;33892;-61
2023/06/07 03:49:40;;;;;;;7.22;3.12;;;;;;;25.08;46.95;99635.97;4485495;32;34605;-62
2023/06/07 03:52:08;;;;;;;5.72;3.42;;;;;;;25.07;46.98;99634.31;4484125;32;33340;-61
2023/06/07 03:54:36;;;;;;;9.55;3.10;;;;;;;25.09;47.02;99645.03;4485604;32;34235;-61
2023/06/07 03:57:03;;;;;;;6.20;3.08;;;;;;;25.08;47.00;99638.69;4485451;32;34749;-61
2023/06/07 03:59:32;;;;;;;8.75;3.70;;;;;;;25.07;46.92;99634.31;4485264;32;33847;-62
2023/06/07 04:02:00;;;;;;;8.95;3.65;;;;;;;25.09;47.00;99639.56;4485512;32;33065;-62
2023/06/07 04:04:28;;;;;;;7.62;3.83;;;;;;;25.08;47.01;99632.41;4485220;32;34301;-60
2023/06/07 04:06:57;;;;;;;7.85;3.50;;;;;;;25.08;47.06;99644.16;4472397;32;35211;-62
2023/06/07 04:09:24;;;;;;;8.75;2.95;;;;;;;25.09;47.02;99636.81;4470601;32;33362;-61
2023/06/07 04:11:52;;;;;;;9.40;3.47;;;;;;;25.11;46.89;99642.87;4472803;32;33482;-62
2023/06/07 04:14:20;;;;;;;5.03;3.35;;;;;;;25.10;46.87;99636.56;4484031;32;33398;-62
2023/06/07 04:16:47;;;;;;;6.65;3.10;;;;;;;25.13;46.85;99647.03;4484890;32;33615;-61
2023/06/07 04:19:15;;;;;;;17.50;3.85;;;;;;;25.14;46.86;99637.75;4483226;32;34181;-63
2023/06/07 04:21:45;;;;;;;15.98;3.25;;;;;;;25.15;46.85;99644.03;4484977;32;34275;-63
2023/06/07 04:24:13;;;;;;;7.97;3.45;;;;;;;25.15;46.79;99641.31;4479996;32;33627;-62
2023/06/07 04:26:44;;;;;;;4.97;2.92;;;;;;;25.18;46.75;99643.53;4482988;32;34756;-60
2023/06/07 04:29:13;;;;;;;4.62;2.92;;;;;;;25.18;46.76;99646.28;4484522;32;34039;-62
2023/06/07 04:31:41;;;;;;;6.03;3.10;;;;;;;25.19;46.77;99648.78;4483194;32;33886;-62
2023/06/07 04:34:10;;;;;;;4.95;3.08;;;;;;;25.20;46.75;99644.16;4484961;32;33565;-60
2023/06/07 04:36:39;;;;;;;4.62;3.17;;;;;;;25.21;46.72;99645.78;4485026;32;33951;-62
2023/06/07 04:39:09;;;;;;;7.37;3.15;;;;;;;25.20;46.71;99644.16;4484690;32;33818;-62
2023/06/07 04:41:40;;;;;;;5.60;3.30;;;;;;;25.22;46.69;99643.87;4484838;32;33804;-63
2023/06/07 04:44:08;;;;;;;5.37;3.33;;;;;;;25.22;46.67;99642.00;4484425;32;34054;-62
2023/06/07 04:46:39;;;;;;;5.45;3.00;;;;;;;25.23;46.65;99642.81;4484623;32;33844;-63
2023/06/07 04:49:08;;;;;;;5.57;3.35;;;;;;;25.24;46.65;99639.03;4484830;32;33812;-62
2023/06/07 04:51:38;;;;;;;5.35;3.10;;;;;;;25.25;46.62;99640.69;4484936;32;33455;-62
2023/06/07 04:54:06;;;;;;;5.93;3.10;;;;;;;25.24;46.62;99639.88;4484240;32;34694;-61
2023/06/07 04:56:34;;;;;;;6.12;3.12;;;;;;;25.25;46.63;99640.69;4484920;32;34010;-61
2023/06/07 04:59:02;;;;;;;7.40;3.37;;;;;;;25.26;46.56;99653.25;4484825;32;33735;-61
2023/06/07 05:01:32;;;;;;;5.70;3.37;;;;;;;25.26;46.52;99645.91;4484523;32;33329;-62
2023/06/07 05:04:02;;;;;;;7.30;3.25;;;;;;;25.26;46.54;99654.09;4484665;32;33438;-62
2023/06/07 05:06:37;;;;;;;6.55;3.10;;;;;;;25.25;46.54;99644.25;4483268;32;34423;-62
2023/06/07 05:09:05;;;;;;;6.43;3.08;;;;;;;25.27;46.53;99652.19;4484794;32;34695;-62
2023/06/07 05:11:33;;;;;;;4.90;3.05;;;;;;;25.26;46.51;99654.09;4484769;32;34173;-62
2023/06/07 05:14:02;;;;;;;5.87;3.20;;;;;;;25.28;46.47;99651.13;4484922;32;33530;-62
2023/06/07 05:16:32;;;;;;;8.38;3.45;;;;;;;25.27;46.50;99649.47;4484018;32;33900;-66
2023/06/07 05:19:03;;;;;;;8.38;3.65;;;;;;;25.28;46.51;99648.41;4484554;32;34145;-66
2023/06/07 05:21:32;;;;;;;6.68;3.20;;;;;;;25.27;46.47;99650.28;4484741;32;33340;-66
2023/06/07 05:23:59;;;;;;;9.90;3.60;;;;;;;25.28;46.46;99653.88;4484752;32;34062;-62
2023/06/07 05:26:27;;;;;;;7.57;3.42;;;;;;;25.28;46.48;99642.94;4475446;32;33772;-66
2023/06/07 05:28:55;;;;;;;5.68;3.40;;;;;;;25.28;46.50;99642.94;4477995;31;33741;-63
2023/06/07 05:31:26;;;;;;;7.68;3.30;;;;;;;25.27;46.50;99647.53;4475183;31;33361;-64
2023/06/07 05:33:54;;;;;;;5.68;2.92;;;;;;;25.27;46.50;99647.53;4468892;32;33902;-69
2023/06/07 05:36:23;;;;;;;9.35;2.90;;;;;;;25.29;46.41;99653.62;4467825;32;34452;-68
2023/06/07 05:38:54;;;;;;;5.62;2.80;;;;;;;25.29;46.35;99650.06;4467722;32;33106;-69
2023/06/07 05:41:21;;;;;;;6.72;2.97;;;;;;;25.29;46.34;99655.53;4468185;32;33780;-65
2023/06/07 05:43:49;;;;;;;12.65;3.35;;;;;;;25.29;46.36;99655.53;4455104;32;34583;-67
2023/06/07 05:46:16;;;;;;;8.25;3.15;;;;;;;25.29;46.35;99653.62;4468799;32;34097;-63
2023/06/07 05:48:44;;;;;;;6.57;2.87;;;;;;;25.30;46.34;99651.72;4468998;32;33703;-68
2023/06/07 05:51:13;;;;;;;7.80;2.67;;;;;;;25.30;46.33;99652.53;4469068;32;34154;-65
2023/06/07 05:53:40;;;;;;;7.90;3.37;;;;;;;25.30;46.30;99659.91;4469102;32;33930;-67
2023/06/07 05:56:10;;;;;;;6.95;3.08;;;;;;;25.30;46.27;99651.72;4468968;32;33935;-65
2023/06/07 05:58:37;;;;;;;7.43;2.70;;;;;;;25.31;46.25;99661.56;4476756;32;33906;-69
2023/06/07 06:01:07;;;;;;;8.55;3.50;;;;;;;25.31;46.22;99658.81;4484549;32;32807;-69
2023/06/07 06:03:35;;;;;;;7.05;2.78;;;;;;;25.31;46.22;99656.09;4483224;32;34389;-63
2023/06/07 06:06:16;;;;;;;8.48;3.25;;;;;;;25.31;46.20;99661.56;4474465;32;34619;-64
2023/06/07 06:08:44;;;;;;;8.48;2.70;;;;;;;25.33;46.19;99667.63;4484227;32;34738;-63
2023/06/07 06:11:13;;;;;;;5.95;2.75;;;;;;;25.30;46.17;99668.94;4484417;32;33145;-63
2023/06/07 06:13:40;;;;;;;7.57;2.87;;;;;;;25.29;46.17;99664.53;4477858;32;33939;-69
2023/06/07 06:16:08;;;;;;;6.65;3.28;;;;;;;25.30;46.14;99663.47;4468420;32;34609;-68
2023/06/07 06:18:41;;;;;;;9.55;3.58;;;;;;;25.30;46.13;99668.94;4474936;32;34437;-64
2023/06/07 06:21:09;;;;;;;7.53;2.70;;;;;;;25.29;46.10;99666.44;4469093;32;34079;-63
2023/06/07 06:23:36;;;;;;;4.50;2.28;;;;;;;25.31;46.08;99676.03;4473926;32;33783;-62
2023/06/07 06:26:04;;;;;;;7.28;3.20;;;;;;;25.31;46.06;99675.22;4455445;32;33691;-65
2023/06/07 06:28:32;;;;;;;7.62;3.08;;;;;;;25.30;46.05;99674.38;4468295;32;33831;-64
2023/06/07 06:31:01;;;;;;;5.47;2.87;;;;;;;25.30;46.03;99677.12;4466540;32;88727;-69
2023/06/07 06:33:29;;;;;;;5.18;2.70;;;;;;;25.30;46.02;99668.09;4468538;32;34177;-64
2023/06/07 06:35:57;;;;;;;7.55;2.85;;;;;;;25.30;45.99;99677.12;4468389;32;34475;-65
2023/06/07 06:38:24;;;;;;;5.57;2.78;;;;;;;25.30;46.00;99674.38;4468003;32;34556;-64
2023/06/07 06:40:52;;;;;;;7.47;2.70;;;;;;;25.30;45.95;99676.28;4481292;32;34117;-66
2023/06/07 06:43:20;;;;;;;6.57;2.87;;;;;;;25.31;45.93;99677.94;4482483;32;34714;-64
2023/06/07 06:45:48;;;;;;;8.65;3.10;;;;;;;25.30;45.92;99679.84;4481224;32;33993;-63
2023/06/07 06:48:16;;;;;;;6.68;2.67;;;;;;;25.31;45.90;99680.69;4470830;32;33790;-68
2023/06/07 06:50:46;;;;;;;6.22;3.05;;;;;;;25.31;45.89;99680.69;4472424;32;33649;-65
2023/06/07 06:53:14;;;;;;;5.90;2.97;;;;;;;25.30;45.87;99677.12;4470013;32;33155;-65
2023/06/07 06:55:41;;;;;;;5.93;2.83;;;;;;;25.30;45.83;99679.84;4467783;32;34154;-67
2023/06/07 06:58:09;;;;;;;8.65;3.22;;;;;;;25.30;45.81;99682.56;4467792;32;33977;-69
2023/06/07 07:00:38;;;;;;;6.32;2.53;;;;;;;25.31;45.78;99677.94;4468531;32;33494;-69
2023/06/07 07:03:05;;;;;;;9.52;3.00;;;;;;;25.31;45.80;99680.69;4467690;32;34081;-64
2023/06/07 07:05:33;;;;;;;8.63;3.08;;;;;;;25.30;45.76;99677.12;4466966;32;34040;-67
2023/06/07 07:08:02;;;;;;;5.97;2.67;;;;;;;25.31;45.74;99677.94;4467517;32;32745;-63
2023/06/07 07:10:30;;;;;;;5.55;2.92;;;;;;;25.30;45.73;99685.31;4466811;32;34043;-68
2023/06/07 07:12:58;;;;;;;4.87;2.50;;;;;;;25.32;45.70;99685.06;4467543;32;33725;-66
2023/06/07 07:15:27;;;;;;;5.35;2.90;;;;;;;25.31;45.69;99677.94;4468192;32;34119;-66
2023/06/07 07:17:55;;;;;;;5.62;2.70;;;;;;;25.30;45.70;99682.56;4469424;32;34585;-66
2023/06/07 07:20:23;;;;;;;4.60;2.50;;;;;;;25.31;45.66;99692.44;4469404;32;34179;-63
2023/06/07 07:22:51;;;;;;;6.43;2.95;;;;;;;25.30;45.68;99684.47;4469829;32;34230;-68
2023/06/07 07:25:18;;;;;;;5.25;2.78;;;;;;;25.32;45.66;99690.53;4469829;32;34099;-64
2023/06/07 07:27:46;;;;;;;4.07;2.47;;;;;;;25.31;45.64;99695.16;4469929;32;33897;-69
2023/06/07 07:30:15;;;;;;;4.18;2.50;;;;;;;25.31;45.63;99691.59;4469820;32;34108;-68
2023/06/07 07:32:42;;;;;;;6.35;2.83;;;;;;;25.32;45.63;99693.25;4469702;32;34690;-67
2023/06/07 07:35:10;;;;;;;6.87;2.75;;;;;;;25.31;45.63;99697.06;4470035;32;33735;-64
2023/06/07 07:37:40;;;;;;;6.93;2.90;;;;;;;25.30;45.64;99693.50;4469758;32;34163;-64
2023/06/07 07:40:12;;;;;;;6.90;2.95;;;;;;;25.32;45.59;99699.56;4469598;32;34386;-64
2023/06/07 07:42:40;;;;;;;5.47;2.47;;;;;;;25.31;45.60;99694.34;4469716;32;33821;-64
2023/06/07 07:45:08;;;;;;;5.07;3.00;;;;;;;25.31;45.61;99699.78;4468654;32;34914;-64
2023/06/07 07:47:36;;;;;;;4.37;2.30;;;;;;;25.31;45.59;99705.25;4469043;32;34051;-63
2023/06/07 07:50:07;;;;;;;5.75;2.97;;;;;;;25.31;45.59;99697.88;4474652;32;33348;-66
2023/06/07 07:52:34;;;;;;;7.43;2.80;;;;;;;25.31;45.59;99703.34;4485362;32;34719;-68
2023/06/07 07:55:02;;;;;;;4.65;2.83;;;;;;;25.33;45.55;99708.59;4485306;32;34034;-63
2023/06/07 07:57:31;;;;;;;5.10;2.72;;;;;;;25.31;45.56;99703.34;4485441;32;33998;-67
2023/06/07 07:59:58;;;;;;;4.90;2.67;;;;;;;25.33;45.54;99705.84;4485671;32;33547;-65
2023/06/07 08:02:26;;;;;;;4.22;2.50;;;;;;;25.32;45.53;99706.91;4485123;32;34162;-69
2023/06/07 08:04:54;;;;;;;5.60;2.87;;;;;;;25.32;45.52;99706.91;4485252;32;34042;-64
2023/06/07 08:07:21;;;;;;;5.87;2.62;;;;;;;25.32;45.52;99715.97;4485372;32;34564;-67
2023/06/07 08:09:49;;;;;;;4.15;2.30;;;;;;;25.33;45.51;99711.31;4485576;32;33093;-66
2023/06/07 08:12:16;;;;;;;4.50;2.58;;;;;;;25.33;45.49;99711.31;4485244;32;33818;-63
2023/06/07 08:14:44;;;;;;;4.75;2.70;;;;;;;25.33;45.47;99712.16;4484183;32;33869;-64
2023/06/07 08:17:11;;;;;;;5.32;2.90;;;;;;;25.33;45.49;99716.78;4476294;32;33710;-63
2023/06/07 08:19:39;;;;;;;5.43;2.83;;;;;;;25.31;45.48;99714.28;4485259;32;33117;-64
2023/06/07 08:22:07;;;;;;;6.70;2.78;;;;;;;25.32;45.46;99712.37;4485417;32;33749;-64
2023/06/07 08:24:34;;;;;;;5.68;2.92;;;;;;;25.32;45.45;99707.75;4485076;32;34759;-66
2023/06/07 08:27:02;;;;;;;5.97;3.12;;;;;;;25.33;45.44;99709.41;4469801;32;34183;-63
2023/06/07 08:29:30;;;;;;;9.05;3.05;;;;;;;25.33;45.45;99712.16;4468190;32;33456;-65
2023/06/07 08:31:57;;;;;;;5.35;2.70;;;;;;;25.33;45.43;99708.59;4469434;32;33680;-69
2023/06/07 08:34:28;;;;;;;4.65;2.80;;;;;;;25.33;45.42;99714.88;4469435;32;33992;-63
2023/06/07 08:37:00;;;;;;;4.32;2.65;;;;;;;25.34;45.40;99715.72;4469216;32;33575;-67
2023/06/07 08:39:28;;;;;;;6.10;2.90;;;;;;;25.35;45.38;99709.16;4469387;32;33417;-69
2023/06/07 08:41:56;;;;;;;4.75;2.65;;;;;;;25.34;45.38;99711.06;4469282;32;34774;-65
2023/06/07 08:44:23;;;;;;;5.45;3.03;;;;;;;25.34;45.37;99704.78;4469118;32;34212;-65
2023/06/07 08:46:51;;;;;;;5.35;2.80;;;;;;;25.34;45.35;99711.06;4469285;32;34500;-64
2023/06/07 08:49:19;;;;;;;6.22;2.60;;;;;;;25.34;45.38;99705.59;4455555;32;33367;-66
2023/06/07 08:51:48;;;;;;;4.20;2.72;;;;;;;25.35;45.34;99701.78;4467881;32;34515;-63
2023/06/07 08:54:25;;;;;;;4.78;2.75;;;;;;;25.35;45.31;99696.34;4456264;32;34127;-68
2023/06/07 08:56:53;;;;;;;4.55;2.58;;;;;;;25.35;45.30;99700.97;4468104;32;33925;-65
2023/06/07 08:59:24;;;;;;;6.53;2.70;;;;;;;25.34;45.33;99691.13;4468229;32;33767;-64
2023/06/07 09:01:52;;;;;;;5.72;3.00;;;;;;;25.34;45.31;99688.41;4469380;32;33853;-63
2023/06/07 09:04:20;;;;;;;6.20;2.92;;;;;;;25.34;45.30;99689.22;4454993;32;34058;-66
2023/06/07 09:06:47;;;;;;;4.95;2.95;;;;;;;25.35;45.30;99696.34;4468203;32;33901;-65
2023/06/07 09:09:15;;;;;;;4.82;2.97;;;;;;;25.34;45.31;99694.69;4469203;32;33486;-63
2023/06/07 09:11:43;;;;;;;6.07;3.10;;;;;;;25.35;45.28;99695.50;4454932;32;34487;-69
2023/06/07 09:14:11;;;;;;;5.53;2.72;;;;;;;25.36;45.26;99694.44;4469476;32;33633;-64
2023/06/07 09:16:55;;;;;;;5.78;2.97;;;;;;;25.35;45.27;99701.78;4470602;32;33982;-63
2023/06/07 09:19:50;;;;;;;5.07;2.80;;;;;;;25.37;45.23;99694.22;4476944;32;33643;-63
2023/06/07 09:22:22;;;;;;;5.65;3.05;;;;;;;25.38;45.18;99698.59;4474160;31;33484;-63
2023/06/07 09:24:50;;;;;;;4.82;2.97;;;;;;;25.37;45.20;99701.56;4473207;32;33882;-68
2023/06/07 09:27:27;;;;;;;5.32;2.95;;;;;;;25.36;45.20;99694.44;4482959;32;33646;-66
2023/06/07 09:30:02;;;;;;;6.00;2.95;;;;;;;25.38;45.16;99692.31;4479613;32;33345;-63
2023/06/07 09:32:35;;;;;;;4.85;2.87;;;;;;;25.37;45.16;99696.94;4475055;32;33601;-63
2023/06/07 09:35:14;;;;;;;4.97;3.08;;;;;;;25.36;45.18;99698.00;4484530;32;34011;-63
2023/06/07 09:37:43;;;;;;;5.30;2.78;;;;;;;25.38;45.13;99701.31;4483491;32;34573;-69
2023/06/07 09:40:13;;;;;;;4.93;2.83;;;;;;;25.38;45.12;99697.78;4481628;32;33107;-63
2023/06/07 09:42:40;;;;;;;;;;;;;;;25.38;45.10;99701.31;4475861;32;33782;-63
2023/06/07 09:45:12;;;;;;;4.87;2.70;;;;;;;25.48;44.93;99705.34;4474459;32;35214;-67
2023/06/07 09:47:41;;;;;;;6.07;2.80;;;;;;;25.41;45.07;99709.03;4479669;32;33943;-68
2023/06/07 09:50:11;;;;;;;6.15;3.12;;;;;;;25.37;45.08;99702.41;4476246;32;34480;-69
2023/06/07 09:52:39;;;;;;;4.30;2.60;;;;;;;25.38;45.08;99711.44;4478368;32;33623;-63
2023/06/07 09:55:07;;;;;;;4.78;3.00;;;;;;;25.37;45.12;99713.31;4473512;32;34706;-64
2023/06/07 09:57:38;;;;;;;4.97;3.03;;;;;;;25.36;45.12;99700.72;4470820;32;32661;-64
2023/06/07 10:00:14;;;;;;;5.65;3.20;;;;;;;25.39;45.08;99702.16;4470391;32;33444;-69
2023/06/07 10:02:43;;;;;;;5.00;3.00;;;;;;;25.37;45.07;99704.31;4469583;32;34239;-69
2023/06/07 10:05:12;;;;;;;5.35;2.90;;;;;;;25.38;45.08;99697.78;4467883;32;33782;-67
2023/06/07 10:07:43;;;;;;;5.30;3.08;;;;;;;25.37;45.08;99691.47;4478702;32;34365;-65
2023/06/07 10:10:12;;;;;;;5.75;3.00;;;;;;;25.38;45.06;99692.31;4470753;32;36475;-67
2023/06/07 10:12:41;;;;;;;4.97;2.97;;;;;;;25.39;45.06;99688.50;4468421;32;33781;-65
2023/06/07 10:15:10;;;;;;;5.37;3.00;;;;;;;25.38;45.05;99690.41;4469293;32;34104;-63
2023/06/07 10:17:48;;;;;;;5.18;2.78;;;;;;;25.40;45.03;99690.16;4468539;32;34372;-66
2023/06/07 10:20:20;;;;;;;6.12;3.35;;;;;;;25.41;45.00;99683.59;4468486;32;33522;-63
2023/06/07 10:22:48;;;;;;;5.05;2.67;;;;;;;25.38;45.03;99684.94;4467411;32;33902;-68
2023/06/07 10:25:18;;;;;;;4.20;2.62;;;;;;;25.39;44.99;99680.31;4468490;32;34027;-64
2023/06/07 10:28:04;;;;;;;4.75;2.95;;;;;;;25.38;45.02;99690.41;4468185;32;34747;-65
2023/06/07 10:30:32;;;;;;;5.12;2.80;;;;;;;25.42;44.94;99690.75;4468126;32;34353;-68
2023/06/07 10:33:00;;;;;;;5.25;2.65;;;;;;;25.39;44.96;99685.75;4475694;32;33710;-69
2023/06/07 10:35:28;;;;;;;5.75;2.62;;;;;;;25.38;44.99;99690.41;4462510;32;33978;-62
2023/06/07 10:37:56;;;;;;;4.37;2.70;;;;;;;25.38;44.97;99684.09;4481802;32;34582;-65
2023/06/07 10:40:25;;;;;;;6.70;2.90;;;;;;;25.39;44.97;99685.75;4480559;32;34308;-63
2023/06/07 10:42:55;;;;;;;4.80;2.60;;;;;;;25.38;44.97;99690.41;4472107;32;34601;-64
2023/06/07 10:45:23;;;;;;;6.35;3.45;;;;;;;25.38;44.95;99686.84;4468368;32;34843;-65
2023/06/07 10:47:51;;;;;;;6.18;3.53;;;;;;;25.40;44.98;99690.16;4478178;32;33741;-63
2023/06/07 10:50:28;;;;;;;4.75;3.10;;;;;;;25.38;44.96;99682.22;4469107;32;33336;-65
2023/06/07 10:53:00;;;;;;;4.97;3.28;;;;;;;25.40;44.97;99682.78;4467993;32;33813;-64
2023/06/07 10:55:31;;;;;;;6.90;3.10;;;;;;;25.40;45.00;99684.69;4468914;32;33629;-65
2023/06/07 10:57:59;;;;;;;5.22;2.90;;;;;;;25.41;44.99;99683.59;4468777;32;34784;-65
2023/06/07 11:00:34;;;;;;;5.37;3.00;;;;;;;25.41;44.98;99680.87;4467638;32;33545;-67
2023/06/07 11:03:04;;;;;;;5.12;2.90;;;;;;;25.40;45.01;99674.59;4470766;32;34650;-66
2023/06/07 11:05:53;;;;;;;5.20;2.90;;;;;;;25.40;45.01;99681.94;4479394;32;34726;-64
2023/06/07 11:08:29;;;;;;;5.35;3.22;;;;;;;25.43;44.99;99678.75;4483690;32;34565;-63
2023/06/07 11:11:23;;;;;;;4.82;3.28;;;;;;;25.40;45.04;99681.94;4483770;32;33445;-69
2023/06/07 11:13:53;;;;;;;5.22;3.20;;;;;;;25.41;45.09;99680.87;4466026;31;33849;-63
2023/06/07 11:16:24;;;;;;;5.50;3.10;;;;;;;25.42;45.10;99671.63;4483746;32;33826;-65
2023/06/07 11:19:09;;;;;;;5.60;3.25;;;;;;;25.40;45.16;99673.75;4483629;32;34096;-66
2023/06/07 11:21:55;;;;;;;6.03;3.35;;;;;;;25.42;45.18;99683.38;4483603;32;33419;-64
2023/06/07 11:24:23;;;;;;;6.35;3.70;;;;;;;25.44;45.16;99677.66;4483225;32;33813;-65
2023/06/07 11:26:51;;;;;;;6.60;3.25;;;;;;;25.41;45.22;99679.00;4483519;32;34879;-63
2023/06/07 11:29:19;;;;;;;5.30;3.67;;;;;;;25.41;45.23;99672.69;4483409;32;34056;-68
2023/06/07 11:31:47;;;;;;;5.60;3.42;;;;;;;25.41;45.24;99675.41;4479618;32;33622;-65
2023/06/07 11:34:15;;;;;;;6.28;3.30;;;;;;;25.41;45.26;99678.16;4479977;32;33873;-63
2023/06/07 11:36:43;;;;;;;8.60;3.67;;;;;;;25.42;45.27;99685.28;4467620;32;34997;-65
2023/06/07 11:39:16;;;;;;;5.28;3.55;;;;;;;25.42;45.30;99679.81;4468376;32;34661;-62
2023/06/07 11:41:44;;;;;;;5.30;3.40;;;;;;;25.42;45.29;99680.66;4467723;32;34134;-65
2023/06/07 11:44:14;;;;;;;6.35;3.35;;;;;;;25.42;45.30;99680.66;4467447;32;33708;-63